This is the latest recevied weather packets stored in our database for station/object DG1GMY-13. If no packets are shown the sender has not sent any weather packets the latest 10 day(s).
| Time | Temp. | Humidity | Pressure | Rain* | Wind** | Luminosity | Snow |
|---|---|---|---|---|---|---|---|
| 1787889072 | 18.89° C | 100% | 1011.3 hPa | - | - | - | - |
| 1787887267 | 18.89° C | 100% | 1012.3 hPa | - | - | - | - |
| 1787885460 | 18.33° C | 100% | 1012 hPa | - | - | - | - |
| 1787883654 | 20.56° C | 93% | 1011.1 hPa | - | - | - | - |
| 1787881848 | 21.11° C | 88% | 1011.7 hPa | - | - | - | - |
| 1787880042 | 21.11° C | 87% | 1011.8 hPa | - | - | - | - |
| 1787878236 | 21.11° C | 81% | 1011.4 hPa | - | - | - | - |
| 1787876430 | 21.67° C | 78% | 1011.9 hPa | - | - | - | - |
| 1787874625 | 22.78° C | 71% | 1011.8 hPa | - | - | - | - |
| 1787872819 | 23.33° C | 70% | 1011.9 hPa | - | - | - | - |
| 1787871013 | 23.33° C | 64% | 1010.1 hPa | - | - | - | - |
| 1787869207 | 23.89° C | 65% | 1009.5 hPa | - | - | - | - |
| 1787867401 | 21.67° C | 77% | 1009.7 hPa | - | - | - | - |
| 1787865595 | 22.22° C | 72% | 1009.4 hPa | - | - | - | - |
| 1787863789 | 22.78° C | 67% | 1009.5 hPa | - | - | - | - |
| 1787861983 | 23.89° C | 61% | 1009.3 hPa | - | - | - | - |
| 1787860177 | 25.56° C | 54% | 1009.2 hPa | - | - | - | - |
| 1787858371 | 25.56° C | 53% | 1009.6 hPa | - | - | - | - |
| 1787856565 | 26.11° C | 52% | 1009.8 hPa | - | - | - | - |
| 1787854759 | 26.67° C | 50% | 1009.9 hPa | - | - | - | - |
| 1787852953 | 27.22° C | 50% | 1010.4 hPa | - | - | - | - |
| 1787851147 | 27.22° C | 50% | 1010.7 hPa | - | - | - | - |
| 1787849342 | 27.78° C | 55% | 1011.2 hPa | - | - | - | - |
| 1787847535 | 30° C | 51% | 1011.4 hPa | - | - | - | - |
| 1787845728 | 30° C | 50% | 1011.4 hPa | - | - | - | - |
* Rain since midnight (hover to see other rain measurements)
** Current wind speed in m/s (hover to see current wind gust speed)